This is the latest recevied weather packets stored in our database for station/object KB3UQE. If no packets are shown the sender has not sent any weather packets the latest 10 day(s).
| Time | Temp. | Humidity | Pressure | Rain* | Wind** | Luminosity | Snow |
|---|---|---|---|---|---|---|---|
| 1777339851 | 15.56° C | 49% | 1022.8 hPa | - | - | - | - |
| 1777338806 | 16.11° C | 49% | 1022.4 hPa | - | - | - | - |
| 1777338591 | 16.11° C | 49% | 1022.4 hPa | - | - | - | - |
| 1777337546 | 15.56° C | 49% | 1022.2 hPa | - | - | - | - |
| 1777337510 | 15.56° C | 49% | 1022.2 hPa | - | - | - | - |
| 1777336466 | 16.11° C | 49% | 1021.8 hPa | - | - | - | - |
| 1777336430 | 16.11° C | 49% | 1021.8 hPa | - | - | - | - |
| 1777335385 | 16.67° C | 49% | 1021.6 hPa | - | - | - | - |
| 1777335349 | 16.67° C | 49% | 1021.6 hPa | - | - | - | - |
| 1777334305 | 17.78° C | 48% | 1021.5 hPa | - | - | - | - |
| 1777334273 | 17.78° C | 48% | 1021.5 hPa | - | - | - | - |
| 1777333093 | 19.44° C | 47% | 1021.2 hPa | - | - | - | - |
| 1777331833 | 20.56° C | 47% | 1021 hPa | - | - | - | - |
| 1777330573 | 21.67° C | 46% | 1020.9 hPa | - | - | - | - |
| 1777329312 | 22.22° C | 46% | 1020.8 hPa | - | - | - | - |
| 1777327872 | 23.33° C | 45% | 1020.7 hPa | - | - | - | - |
| 1777326612 | 23.89° C | 45% | 1020.8 hPa | - | - | - | - |
| 1777325352 | 23.89° C | 45% | 1021 hPa | - | - | - | - |
| 1777324091 | 23.89° C | 46% | 1021.1 hPa | - | - | - | - |
| 1777322831 | 23.89° C | 46% | 1021.1 hPa | - | - | - | - |
| 1777321751 | 25° C | 46% | 1021 hPa | - | - | - | - |
| 1777320671 | 25° C | 46% | 1021.1 hPa | - | - | - | - |
| 1777319411 | 25° C | 46% | 1021.3 hPa | - | - | - | - |
| 1777318151 | 25° C | 46% | 1021.4 hPa | - | - | - | - |
| 1777316892 | 24.44° C | 47% | 1021.6 hPa | - | - | - | - |
* Rain since midnight (hover to see other rain measurements)
** Current wind speed in m/s (hover to see current wind gust speed)